sensor_id;sensor_type;location;lat;lon;timestamp;temperature;humidity
19279;DHT22;9773;47.062;15.446;2022-09-03T00:02:01;16.00;99.90
19279;DHT22;9773;47.062;15.446;2022-09-03T00:07:02;15.80;99.90
19279;DHT22;9773;47.062;15.446;2022-09-03T00:09:38;15.70;99.90
19279;DHT22;9773;47.062;15.446;2022-09-03T00:12:20;15.60;99.90
19279;DHT22;9773;47.062;15.446;2022-09-03T00:15:01;15.50;99.90
19279;DHT22;9773;47.062;15.446;2022-09-03T00:18:10;15.40;99.90
19279;DHT22;9773;47.062;15.446;2022-09-03T00:20:49;15.90;99.90
19279;DHT22;9773;47.062;15.446;2022-09-03T00:23:39;15.40;99.90
19279;DHT22;9773;47.062;15.446;2022-09-03T00:38:57;15.10;99.90
19279;DHT22;9773;47.062;15.446;2022-09-03T00:41:36;15.10;99.90
19279;DHT22;9773;47.062;15.446;2022-09-03T00:46:59;15.00;99.90
19279;DHT22;9773;47.062;15.446;2022-09-03T00:49:42;15.00;99.90
19279;DHT22;9773;47.062;15.446;2022-09-03T00:55:24;15.00;99.90
19279;DHT22;9773;47.062;15.446;2022-09-03T01:00:23;14.90;99.90
19279;DHT22;9773;47.062;15.446;2022-09-03T01:13:19;14.80;99.90
19279;DHT22;9773;47.062;15.446;2022-09-03T01:27:35;14.60;99.90
19279;DHT22;9773;47.062;15.446;2022-09-03T01:30:06;14.70;99.90
19279;DHT22;9773;47.062;15.446;2022-09-03T01:41:09;14.50;99.90
19279;DHT22;9773;47.062;15.446;2022-09-03T01:44:23;14.50;99.90
19279;DHT22;9773;47.062;15.446;2022-09-03T01:47:10;14.50;99.90
19279;DHT22;9773;47.062;15.446;2022-09-03T01:55:33;14.50;99.90
19279;DHT22;9773;47.062;15.446;2022-09-03T01:58:19;14.60;99.90
19279;DHT22;9773;47.062;15.446;2022-09-03T02:00:51;14.70;99.90
19279;DHT22;9773;47.062;15.446;2022-09-03T02:03:23;14.70;99.90
19279;DHT22;9773;47.062;15.446;2022-09-03T02:05:49;14.60;99.90
19279;DHT22;9773;47.062;15.446;2022-09-03T02:08:18;14.60;99.90
19279;DHT22;9773;47.062;15.446;2022-09-03T02:10:52;14.70;99.90
19279;DHT22;9773;47.062;15.446;2022-09-03T02:13:37;14.70;99.90
19279;DHT22;9773;47.062;15.446;2022-09-03T02:16:10;14.70;99.90
19279;DHT22;9773;47.062;15.446;2022-09-03T02:18:59;14.70;99.90
19279;DHT22;9773;47.062;15.446;2022-09-03T02:21:28;14.70;99.90
19279;DHT22;9773;47.062;15.446;2022-09-03T02:23:57;14.60;99.90
19279;DHT22;9773;47.062;15.446;2022-09-03T02:26:23;14.70;99.90
19279;DHT22;9773;47.062;15.446;2022-09-03T02:28:50;14.70;99.90
19279;DHT22;9773;47.062;15.446;2022-09-03T02:31:17;14.60;99.90
19279;DHT22;9773;47.062;15.446;2022-09-03T02:33:47;14.60;99.90
19279;DHT22;9773;47.062;15.446;2022-09-03T02:36:17;14.50;99.90
19279;DHT22;9773;47.062;15.446;2022-09-03T02:38:44;14.60;99.90
19279;DHT22;9773;47.062;15.446;2022-09-03T02:41:10;14.50;99.90
19279;DHT22;9773;47.062;15.446;2022-09-03T02:46:44;14.40;99.90
19279;DHT22;9773;47.062;15.446;2022-09-03T02:49:11;14.40;99.90
19279;DHT22;9773;47.062;15.446;2022-09-03T02:51:40;14.30;99.90
19279;DHT22;9773;47.062;15.446;2022-09-03T02:54:07;14.30;99.90
19279;DHT22;9773;47.062;15.446;2022-09-03T02:56:33;14.40;99.90
19279;DHT22;9773;47.062;15.446;2022-09-03T02:58:59;14.40;99.90
19279;DHT22;9773;47.062;15.446;2022-09-03T03:01:26;14.40;99.90
19279;DHT22;9773;47.062;15.446;2022-09-03T03:03:52;14.40;99.90
19279;DHT22;9773;47.062;15.446;2022-09-03T03:06:18;14.50;99.90
19279;DHT22;9773;47.062;15.446;2022-09-03T03:08:46;14.50;99.90
19279;DHT22;9773;47.062;15.446;2022-09-03T03:11:12;14.50;99.90
19279;DHT22;9773;47.062;15.446;2022-09-03T03:13:40;14.50;99.90
19279;DHT22;9773;47.062;15.446;2022-09-03T03:16:06;14.40;99.90
19279;DHT22;9773;47.062;15.446;2022-09-03T03:18:32;14.40;99.90
19279;DHT22;9773;47.062;15.446;2022-09-03T03:21:07;14.40;99.90
19279;DHT22;9773;47.062;15.446;2022-09-03T03:23:34;14.30;99.90
19279;DHT22;9773;47.062;15.446;2022-09-03T03:26:01;14.30;99.90
19279;DHT22;9773;47.062;15.446;2022-09-03T03:28:27;14.40;99.90
19279;DHT22;9773;47.062;15.446;2022-09-03T03:30:52;14.40;99.90
19279;DHT22;9773;47.062;15.446;2022-09-03T03:33:18;14.40;99.90
19279;DHT22;9773;47.062;15.446;2022-09-03T03:35:45;14.40;99.90
19279;DHT22;9773;47.062;15.446;2022-09-03T03:38:11;14.50;99.90
19279;DHT22;9773;47.062;15.446;2022-09-03T03:40:37;14.50;99.90
19279;DHT22;9773;47.062;15.446;2022-09-03T03:43:03;14.40;99.90
19279;DHT22;9773;47.062;15.446;2022-09-03T03:45:29;14.30;99.90
19279;DHT22;9773;47.062;15.446;2022-09-03T03:47:58;14.30;99.90
19279;DHT22;9773;47.062;15.446;2022-09-03T03:50:24;14.20;99.90
19279;DHT22;9773;47.062;15.446;2022-09-03T03:52:50;14.10;99.90
19279;DHT22;9773;47.062;15.446;2022-09-03T03:55:16;14.00;99.90
19279;DHT22;9773;47.062;15.446;2022-09-03T03:57:42;14.00;99.90
19279;DHT22;9773;47.062;15.446;2022-09-03T04:00:08;14.00;99.90
19279;DHT22;9773;47.062;15.446;2022-09-03T04:02:34;13.90;99.90
19279;DHT22;9773;47.062;15.446;2022-09-03T04:05:00;13.90;99.90
19279;DHT22;9773;47.062;15.446;2022-09-03T04:07:26;14.00;99.90
19279;DHT22;9773;47.062;15.446;2022-09-03T04:09:51;14.00;99.90
19279;DHT22;9773;47.062;15.446;2022-09-03T04:12:17;14.00;99.90
19279;DHT22;9773;47.062;15.446;2022-09-03T04:14:43;14.10;99.90
19279;DHT22;9773;47.062;15.446;2022-09-03T04:17:09;14.10;99.90
19279;DHT22;9773;47.062;15.446;2022-09-03T04:19:35;14.00;99.90
19279;DHT22;9773;47.062;15.446;2022-09-03T04:22:01;14.00;99.90
19279;DHT22;9773;47.062;15.446;2022-09-03T04:24:27;14.00;99.90
19279;DHT22;9773;47.062;15.446;2022-09-03T04:26:53;13.90;99.90
19279;DHT22;9773;47.062;15.446;2022-09-03T04:29:19;13.80;99.90
19279;DHT22;9773;47.062;15.446;2022-09-03T04:31:46;13.70;99.90
19279;DHT22;9773;47.062;15.446;2022-09-03T04:34:30;13.80;99.90
19279;DHT22;9773;47.062;15.446;2022-09-03T04:36:56;13.80;99.90
19279;DHT22;9773;47.062;15.446;2022-09-03T04:39:24;13.80;99.90
19279;DHT22;9773;47.062;15.446;2022-09-03T04:41:50;13.70;99.90
19279;DHT22;9773;47.062;15.446;2022-09-03T04:44:15;13.70;99.90
19279;DHT22;9773;47.062;15.446;2022-09-03T04:46:41;13.60;99.90
19279;DHT22;9773;47.062;15.446;2022-09-03T04:49:07;13.70;99.90
19279;DHT22;9773;47.062;15.446;2022-09-03T04:51:34;13.70;99.90
19279;DHT22;9773;47.062;15.446;2022-09-03T04:54:02;13.70;99.90
19279;DHT22;9773;47.062;15.446;2022-09-03T04:56:33;13.70;99.90
19279;DHT22;9773;47.062;15.446;2022-09-03T04:59:01;13.80;99.90
19279;DHT22;9773;47.062;15.446;2022-09-03T05:01:30;13.80;99.90
19279;DHT22;9773;47.062;15.446;2022-09-03T05:03:56;13.80;99.90
19279;DHT22;9773;47.062;15.446;2022-09-03T05:06:23;13.80;99.90
19279;DHT22;9773;47.062;15.446;2022-09-03T05:08:51;13.80;99.90
19279;DHT22;9773;47.062;15.446;2022-09-03T05:11:17;13.90;99.90
19279;DHT22;9773;47.062;15.446;2022-09-03T05:13:47;14.10;99.90
19279;DHT22;9773;47.062;15.446;2022-09-03T05:16:13;14.20;99.90
19279;DHT22;9773;47.062;15.446;2022-09-03T05:18:40;14.30;99.90
19279;DHT22;9773;47.062;15.446;2022-09-03T05:21:09;14.30;99.90
19279;DHT22;9773;47.062;15.446;2022-09-03T05:23:38;14.50;99.90
19279;DHT22;9773;47.062;15.446;2022-09-03T05:26:06;14.60;99.90
19279;DHT22;9773;47.062;15.446;2022-09-03T05:28:37;14.60;99.90
19279;DHT22;9773;47.062;15.446;2022-09-03T05:31:08;14.60;99.90
19279;DHT22;9773;47.062;15.446;2022-09-03T05:33:37;14.60;99.90
19279;DHT22;9773;47.062;15.446;2022-09-03T05:36:06;14.70;99.90
19279;DHT22;9773;47.062;15.446;2022-09-03T05:38:33;14.60;99.90
19279;DHT22;9773;47.062;15.446;2022-09-03T05:41:00;14.70;99.90
19279;DHT22;9773;47.062;15.446;2022-09-03T05:43:27;14.80;99.90
19279;DHT22;9773;47.062;15.446;2022-09-03T05:45:59;14.80;99.90
19279;DHT22;9773;47.062;15.446;2022-09-03T05:48:29;14.70;99.90
19279;DHT22;9773;47.062;15.446;2022-09-03T05:51:06;14.80;99.90
19279;DHT22;9773;47.062;15.446;2022-09-03T05:53:35;14.80;99.90
19279;DHT22;9773;47.062;15.446;2022-09-03T05:56:03;14.80;99.90
19279;DHT22;9773;47.062;15.446;2022-09-03T05:58:34;14.90;99.90
19279;DHT22;9773;47.062;15.446;2022-09-03T06:01:18;15.00;99.90
19279;DHT22;9773;47.062;15.446;2022-09-03T06:03:47;15.00;99.90
19279;DHT22;9773;47.062;15.446;2022-09-03T06:06:13;15.20;99.90
19279;DHT22;9773;47.062;15.446;2022-09-03T06:08:40;15.30;99.90
19279;DHT22;9773;47.062;15.446;2022-09-03T06:11:07;15.30;99.90
19279;DHT22;9773;47.062;15.446;2022-09-03T06:13:34;15.40;99.90
19279;DHT22;9773;47.062;15.446;2022-09-03T06:16:02;15.40;99.90
19279;DHT22;9773;47.062;15.446;2022-09-03T06:18:29;15.50;99.90
19279;DHT22;9773;47.062;15.446;2022-09-03T06:20:56;15.60;99.90
19279;DHT22;9773;47.062;15.446;2022-09-03T06:23:23;15.80;99.90
19279;DHT22;9773;47.062;15.446;2022-09-03T06:26:12;15.80;99.90
19279;DHT22;9773;47.062;15.446;2022-09-03T06:28:40;15.90;99.90
19279;DHT22;9773;47.062;15.446;2022-09-03T06:31:10;16.00;99.90
19279;DHT22;9773;47.062;15.446;2022-09-03T06:33:37;16.10;99.90
19279;DHT22;9773;47.062;15.446;2022-09-03T06:36:11;16.20;99.90
19279;DHT22;9773;47.062;15.446;2022-09-03T06:38:38;16.20;99.90
19279;DHT22;9773;47.062;15.446;2022-09-03T06:41:12;16.30;99.90
19279;DHT22;9773;47.062;15.446;2022-09-03T06:43:40;16.40;99.90
19279;DHT22;9773;47.062;15.446;2022-09-03T06:46:11;16.40;99.90
19279;DHT22;9773;47.062;15.446;2022-09-03T06:48:38;16.50;99.90
19279;DHT22;9773;47.062;15.446;2022-09-03T06:51:10;16.60;99.90
19279;DHT22;9773;47.062;15.446;2022-09-03T06:53:40;16.60;99.90
19279;DHT22;9773;47.062;15.446;2022-09-03T06:56:11;16.70;99.90
19279;DHT22;9773;47.062;15.446;2022-09-03T06:58:39;16.80;99.90
19279;DHT22;9773;47.062;15.446;2022-09-03T07:01:10;16.90;99.90
19279;DHT22;9773;47.062;15.446;2022-09-03T07:03:38;16.90;99.90
19279;DHT22;9773;47.062;15.446;2022-09-03T07:06:07;17.00;99.90
19279;DHT22;9773;47.062;15.446;2022-09-03T07:08:34;17.10;99.90
19279;DHT22;9773;47.062;15.446;2022-09-03T07:11:02;17.20;99.90
19279;DHT22;9773;47.062;15.446;2022-09-03T07:13:34;17.20;99.90
19279;DHT22;9773;47.062;15.446;2022-09-03T07:16:09;17.30;99.90
19279;DHT22;9773;47.062;15.446;2022-09-03T07:18:36;17.40;99.90
19279;DHT22;9773;47.062;15.446;2022-09-03T07:21:07;17.50;99.90
19279;DHT22;9773;47.062;15.446;2022-09-03T07:23:34;17.60;99.90
19279;DHT22;9773;47.062;15.446;2022-09-03T07:26:03;17.60;99.90
19279;DHT22;9773;47.062;15.446;2022-09-03T07:28:30;17.70;99.90
19279;DHT22;9773;47.062;15.446;2022-09-03T07:31:07;17.70;99.90
19279;DHT22;9773;47.062;15.446;2022-09-03T07:33:37;17.80;99.90
19279;DHT22;9773;47.062;15.446;2022-09-03T07:36:09;17.90;99.90
19279;DHT22;9773;47.062;15.446;2022-09-03T07:38:36;18.00;99.90
19279;DHT22;9773;47.062;15.446;2022-09-03T07:41:04;18.10;99.90
19279;DHT22;9773;47.062;15.446;2022-09-03T07:43:38;18.10;99.90
19279;DHT22;9773;47.062;15.446;2022-09-03T07:46:16;18.20;99.90
19279;DHT22;9773;47.062;15.446;2022-09-03T07:48:54;18.20;99.90
19279;DHT22;9773;47.062;15.446;2022-09-03T07:51:22;18.30;99.90
19279;DHT22;9773;47.062;15.446;2022-09-03T07:53:55;18.30;99.90
19279;DHT22;9773;47.062;15.446;2022-09-03T07:56:25;18.40;99.90
19279;DHT22;9773;47.062;15.446;2022-09-03T07:58:52;18.40;99.90
19279;DHT22;9773;47.062;15.446;2022-09-03T08:01:21;18.50;99.90
19279;DHT22;9773;47.062;15.446;2022-09-03T08:03:51;18.60;99.90
19279;DHT22;9773;47.062;15.446;2022-09-03T08:06:20;18.70;99.90
19279;DHT22;9773;47.062;15.446;2022-09-03T08:08:46;18.70;99.90
19279;DHT22;9773;47.062;15.446;2022-09-03T08:16:12;19.00;99.90
19279;DHT22;9773;47.062;15.446;2022-09-03T08:18:38;19.00;99.90
19279;DHT22;9773;47.062;15.446;2022-09-03T08:21:06;19.10;99.90
19279;DHT22;9773;47.062;15.446;2022-09-03T08:23:36;19.20;99.90
19279;DHT22;9773;47.062;15.446;2022-09-03T08:26:04;19.20;99.90
19279;DHT22;9773;47.062;15.446;2022-09-03T08:28:30;19.20;99.90
19279;DHT22;9773;47.062;15.446;2022-09-03T08:31:04;19.30;99.90
19279;DHT22;9773;47.062;15.446;2022-09-03T08:33:31;19.30;99.90
19279;DHT22;9773;47.062;15.446;2022-09-03T08:36:05;19.40;99.90
19279;DHT22;9773;47.062;15.446;2022-09-03T08:38:32;19.50;99.90
19279;DHT22;9773;47.062;15.446;2022-09-03T08:44:04;19.60;99.90
19279;DHT22;9773;47.062;15.446;2022-09-03T08:46:43;19.70;99.90
19279;DHT22;9773;47.062;15.446;2022-09-03T08:49:14;19.80;99.90
19279;DHT22;9773;47.062;15.446;2022-09-03T08:51:42;19.80;99.90
19279;DHT22;9773;47.062;15.446;2022-09-03T08:54:10;19.90;99.90
19279;DHT22;9773;47.062;15.446;2022-09-03T08:59:07;20.00;99.90
19279;DHT22;9773;47.062;15.446;2022-09-03T09:07:10;20.00;99.90
19279;DHT22;9773;47.062;15.446;2022-09-03T09:15:24;20.10;99.90
19279;DHT22;9773;47.062;15.446;2022-09-03T09:18:16;20.10;99.90
19279;DHT22;9773;47.062;15.446;2022-09-03T09:20:53;20.20;99.90
19279;DHT22;9773;47.062;15.446;2022-09-03T09:23:29;20.30;99.90
19279;DHT22;9773;47.062;15.446;2022-09-03T09:25:58;20.40;99.90
19279;DHT22;9773;47.062;15.446;2022-09-03T09:31:00;20.40;99.90
19279;DHT22;9773;47.062;15.446;2022-09-03T09:33:29;20.50;99.90
19279;DHT22;9773;47.062;15.446;2022-09-03T09:35:58;20.50;99.90
19279;DHT22;9773;47.062;15.446;2022-09-03T09:38:30;20.60;99.90
19279;DHT22;9773;47.062;15.446;2022-09-03T09:41:09;20.60;99.90
19279;DHT22;9773;47.062;15.446;2022-09-03T09:43:35;20.60;99.90
19279;DHT22;9773;47.062;15.446;2022-09-03T09:46:10;20.60;99.90
19279;DHT22;9773;47.062;15.446;2022-09-03T09:48:45;20.60;99.90
19279;DHT22;9773;47.062;15.446;2022-09-03T09:51:21;20.70;99.90
19279;DHT22;9773;47.062;15.446;2022-09-03T09:53:59;20.80;99.90
19279;DHT22;9773;47.062;15.446;2022-09-03T09:56:25;20.90;99.90
19279;DHT22;9773;47.062;15.446;2022-09-03T09:59:11;20.90;99.90
19279;DHT22;9773;47.062;15.446;2022-09-03T10:01:39;21.00;99.90
19279;DHT22;9773;47.062;15.446;2022-09-03T10:04:21;21.10;99.90
19279;DHT22;9773;47.062;15.446;2022-09-03T10:07:04;21.00;99.90
19279;DHT22;9773;47.062;15.446;2022-09-03T10:09:32;21.00;99.90
19279;DHT22;9773;47.062;15.446;2022-09-03T10:14:35;21.00;99.90
19279;DHT22;9773;47.062;15.446;2022-09-03T10:17:24;21.00;99.90
19279;DHT22;9773;47.062;15.446;2022-09-03T10:20:28;21.00;99.90
19279;DHT22;9773;47.062;15.446;2022-09-03T10:23:00;21.00;99.90
19279;DHT22;9773;47.062;15.446;2022-09-03T10:28:15;20.90;99.90
19279;DHT22;9773;47.062;15.446;2022-09-03T10:33:48;21.00;99.90
19279;DHT22;9773;47.062;15.446;2022-09-03T10:36:33;21.10;99.90
19279;DHT22;9773;47.062;15.446;2022-09-03T10:39:07;21.10;99.90
19279;DHT22;9773;47.062;15.446;2022-09-03T10:41:47;21.20;99.90
19279;DHT22;9773;47.062;15.446;2022-09-03T10:52:58;21.70;99.90
19279;DHT22;9773;47.062;15.446;2022-09-03T10:55:55;21.70;99.90
19279;DHT22;9773;47.062;15.446;2022-09-03T11:06:27;21.80;99.90
19279;DHT22;9773;47.062;15.446;2022-09-03T11:10:00;21.70;99.90
19279;DHT22;9773;47.062;15.446;2022-09-03T11:14:43;21.80;99.90
19279;DHT22;9773;47.062;15.446;2022-09-03T11:17:37;21.90;99.90
19279;DHT22;9773;47.062;15.446;2022-09-03T11:22:39;22.30;99.90
19279;DHT22;9773;47.062;15.446;2022-09-03T11:25:07;22.40;99.90
19279;DHT22;9773;47.062;15.446;2022-09-03T11:27:51;22.50;99.90
19279;DHT22;9773;47.062;15.446;2022-09-03T11:30:31;22.70;99.90
19279;DHT22;9773;47.062;15.446;2022-09-03T11:33:08;22.70;99.90
19279;DHT22;9773;47.062;15.446;2022-09-03T11:38:05;22.70;99.80
19279;DHT22;9773;47.062;15.446;2022-09-03T11:40:33;22.50;99.90
19279;DHT22;9773;47.062;15.446;2022-09-03T11:43:10;22.60;99.90
19279;DHT22;9773;47.062;15.446;2022-09-03T11:45:37;22.60;99.90
19279;DHT22;9773;47.062;15.446;2022-09-03T11:50:59;22.80;99.90
19279;DHT22;9773;47.062;15.446;2022-09-03T11:53:32;22.80;99.90
19279;DHT22;9773;47.062;15.446;2022-09-03T11:56:11;22.80;99.90
19279;DHT22;9773;47.062;15.446;2022-09-03T11:58:42;22.80;99.90
19279;DHT22;9773;47.062;15.446;2022-09-03T12:01:10;22.70;99.90
19279;DHT22;9773;47.062;15.446;2022-09-03T12:04:00;22.60;99.90
19279;DHT22;9773;47.062;15.446;2022-09-03T12:07:05;22.70;99.80
19279;DHT22;9773;47.062;15.446;2022-09-03T12:18:08;22.90;99.90
19279;DHT22;9773;47.062;15.446;2022-09-03T12:20:59;23.00;99.40
19279;DHT22;9773;47.062;15.446;2022-09-03T12:23:34;23.10;99.40
19279;DHT22;9773;47.062;15.446;2022-09-03T12:26:12;23.10;99.30
19279;DHT22;9773;47.062;15.446;2022-09-03T12:28:41;23.00;99.50
19279;DHT22;9773;47.062;15.446;2022-09-03T12:31:19;23.00;99.90
19279;DHT22;9773;47.062;15.446;2022-09-03T12:36:20;23.00;99.80
19279;DHT22;9773;47.062;15.446;2022-09-03T12:38:47;23.00;99.90
19279;DHT22;9773;47.062;15.446;2022-09-03T12:41:27;23.00;99.90
19279;DHT22;9773;47.062;15.446;2022-09-03T12:43:59;23.10;99.80
19279;DHT22;9773;47.062;15.446;2022-09-03T12:46:27;23.10;99.90
19279;DHT22;9773;47.062;15.446;2022-09-03T12:48:58;23.20;99.70
19279;DHT22;9773;47.062;15.446;2022-09-03T12:51:37;23.10;99.10
19279;DHT22;9773;47.062;15.446;2022-09-03T12:54:09;23.10;99.50
19279;DHT22;9773;47.062;15.446;2022-09-03T12:56:46;23.20;99.80
19279;DHT22;9773;47.062;15.446;2022-09-03T12:59:17;23.20;99.10
19279;DHT22;9773;47.062;15.446;2022-09-03T13:01:53;23.30;99.40
19279;DHT22;9773;47.062;15.446;2022-09-03T13:04:27;23.30;99.40
19279;DHT22;9773;47.062;15.446;2022-09-03T13:07:10;23.30;99.60
19279;DHT22;9773;47.062;15.446;2022-09-03T13:09:38;23.30;99.70
19279;DHT22;9773;47.062;15.446;2022-09-03T13:12:06;23.30;99.20
19279;DHT22;9773;47.062;15.446;2022-09-03T13:14:42;23.30;99.20
19279;DHT22;9773;47.062;15.446;2022-09-03T13:20:38;23.20;99.60
19279;DHT22;9773;47.062;15.446;2022-09-03T13:23:29;23.30;99.90
19279;DHT22;9773;47.062;15.446;2022-09-03T13:26:01;23.30;99.90
19279;DHT22;9773;47.062;15.446;2022-09-03T13:33:40;23.40;99.90
19279;DHT22;9773;47.062;15.446;2022-09-03T13:36:18;23.40;99.90
19279;DHT22;9773;47.062;15.446;2022-09-03T13:38:53;23.40;99.90
19279;DHT22;9773;47.062;15.446;2022-09-03T13:44:16;23.50;99.40
19279;DHT22;9773;47.062;15.446;2022-09-03T13:52:24;23.60;99.40
19279;DHT22;9773;47.062;15.446;2022-09-03T13:54:57;23.70;99.20
19279;DHT22;9773;47.062;15.446;2022-09-03T13:57:37;23.80;99.20
19279;DHT22;9773;47.062;15.446;2022-09-03T14:00:08;23.80;99.30
19279;DHT22;9773;47.062;15.446;2022-09-03T14:02:53;23.80;99.20
19279;DHT22;9773;47.062;15.446;2022-09-03T14:08:24;23.80;99.00
19279;DHT22;9773;47.062;15.446;2022-09-03T14:11:26;23.80;98.90
19279;DHT22;9773;47.062;15.446;2022-09-03T14:16:45;23.70;98.80
19279;DHT22;9773;47.062;15.446;2022-09-03T14:25:22;23.80;98.80
19279;DHT22;9773;47.062;15.446;2022-09-03T14:27:48;23.90;98.40
19279;DHT22;9773;47.062;15.446;2022-09-03T14:30:19;24.00;98.30
19279;DHT22;9773;47.062;15.446;2022-09-03T14:47:26;24.40;97.70
19279;DHT22;9773;47.062;15.446;2022-09-03T14:53:09;24.40;98.00
19279;DHT22;9773;47.062;15.446;2022-09-03T15:01:34;24.10;97.60
19279;DHT22;9773;47.062;15.446;2022-09-03T15:14:56;23.60;98.00
19279;DHT22;9773;47.062;15.446;2022-09-03T15:17:48;23.60;98.10
19279;DHT22;9773;47.062;15.446;2022-09-03T15:20:51;23.80;98.20
19279;DHT22;9773;47.062;15.446;2022-09-03T15:32:23;24.00;98.10
19279;DHT22;9773;47.062;15.446;2022-09-03T15:35:03;24.00;98.40
19279;DHT22;9773;47.062;15.446;2022-09-03T15:37:45;23.90;98.00
19279;DHT22;9773;47.062;15.446;2022-09-03T15:40:33;23.80;98.00
19279;DHT22;9773;47.062;15.446;2022-09-03T15:43:09;23.70;98.20
19279;DHT22;9773;47.062;15.446;2022-09-03T15:51:25;23.50;98.70
19279;DHT22;9773;47.062;15.446;2022-09-03T15:54:10;23.40;99.10
19279;DHT22;9773;47.062;15.446;2022-09-03T15:59:18;23.10;99.10
19279;DHT22;9773;47.062;15.446;2022-09-03T16:02:06;23.10;99.50
19279;DHT22;9773;47.062;15.446;2022-09-03T16:04:42;22.90;99.80
19279;DHT22;9773;47.062;15.446;2022-09-03T16:07:29;22.80;99.50
19279;DHT22;9773;47.062;15.446;2022-09-03T16:10:14;22.80;99.50
19279;DHT22;9773;47.062;15.446;2022-09-03T16:13:02;22.80;99.60
19279;DHT22;9773;47.062;15.446;2022-09-03T16:15:44;22.70;99.90
19279;DHT22;9773;47.062;15.446;2022-09-03T16:18:41;22.70;99.90
19279;DHT22;9773;47.062;15.446;2022-09-03T16:21:31;22.70;99.90
19279;DHT22;9773;47.062;15.446;2022-09-03T16:24:02;22.60;99.90
19279;DHT22;9773;47.062;15.446;2022-09-03T16:26:36;22.60;99.90
19279;DHT22;9773;47.062;15.446;2022-09-03T16:29:10;22.50;99.90
19279;DHT22;9773;47.062;15.446;2022-09-03T16:45:28;22.50;99.90
19279;DHT22;9773;47.062;15.446;2022-09-03T17:02:36;22.20;99.90
19279;DHT22;9773;47.062;15.446;2022-09-03T17:05:15;22.20;99.90
19279;DHT22;9773;47.062;15.446;2022-09-03T17:08:09;22.10;99.90
19279;DHT22;9773;47.062;15.446;2022-09-03T17:11:04;22.10;99.90
19279;DHT22;9773;47.062;15.446;2022-09-03T17:19:48;21.90;99.90
19279;DHT22;9773;47.062;15.446;2022-09-03T17:24:55;21.80;99.90
19279;DHT22;9773;47.062;15.446;2022-09-03T17:36:15;21.70;99.90
19279;DHT22;9773;47.062;15.446;2022-09-03T17:50:23;21.50;99.90
19279;DHT22;9773;47.062;15.446;2022-09-03T17:52:54;21.50;99.90
19279;DHT22;9773;47.062;15.446;2022-09-03T17:55:32;21.50;99.90
19279;DHT22;9773;47.062;15.446;2022-09-03T17:58:21;21.50;99.90
19279;DHT22;9773;47.062;15.446;2022-09-03T18:04:25;21.50;99.90
19279;DHT22;9773;47.062;15.446;2022-09-03T18:12:11;21.40;99.90
19279;DHT22;9773;47.062;15.446;2022-09-03T18:14:51;21.30;99.90
19279;DHT22;9773;47.062;15.446;2022-09-03T18:17:32;21.30;99.90
19279;DHT22;9773;47.062;15.446;2022-09-03T18:20:11;21.20;99.90
19279;DHT22;9773;47.062;15.446;2022-09-03T18:25:49;21.20;99.90
19279;DHT22;9773;47.062;15.446;2022-09-03T18:28:46;21.20;99.90
19279;DHT22;9773;47.062;15.446;2022-09-03T18:31:31;21.20;99.90
19279;DHT22;9773;47.062;15.446;2022-09-03T18:34:19;21.10;99.90
19279;DHT22;9773;47.062;15.446;2022-09-03T18:37:04;21.10;99.90
19279;DHT22;9773;47.062;15.446;2022-09-03T18:39:49;21.00;99.90
19279;DHT22;9773;47.062;15.446;2022-09-03T18:45:48;21.00;99.90
19279;DHT22;9773;47.062;15.446;2022-09-03T18:52:46;20.90;99.90
19279;DHT22;9773;47.062;15.446;2022-09-03T18:55:04;20.80;99.90
19279;DHT22;9773;47.062;15.446;2022-09-03T19:01:35;20.80;99.90
19279;DHT22;9773;47.062;15.446;2022-09-03T19:07:42;20.80;99.90
19279;DHT22;9773;47.062;15.446;2022-09-03T19:10:54;20.70;99.90
19279;DHT22;9773;47.062;15.446;2022-09-03T19:13:41;20.70;99.90
19279;DHT22;9773;47.062;15.446;2022-09-03T19:22:10;20.50;99.90
19279;DHT22;9773;47.062;15.446;2022-09-03T19:25:15;20.50;99.90
19279;DHT22;9773;47.062;15.446;2022-09-03T19:37:41;20.30;99.90
19279;DHT22;9773;47.062;15.446;2022-09-03T19:46:49;20.10;99.90
19279;DHT22;9773;47.062;15.446;2022-09-03T19:53:09;20.10;99.90
19279;DHT22;9773;47.062;15.446;2022-09-03T19:55:56;20.00;99.90
19279;DHT22;9773;47.062;15.446;2022-09-03T19:58:46;20.10;99.90
19279;DHT22;9773;47.062;15.446;2022-09-03T20:01:34;20.00;99.90
19279;DHT22;9773;47.062;15.446;2022-09-03T20:04:30;20.00;99.90
19279;DHT22;9773;47.062;15.446;2022-09-03T20:07:15;20.00;99.90
19279;DHT22;9773;47.062;15.446;2022-09-03T20:10:03;19.90;99.90
19279;DHT22;9773;47.062;15.446;2022-09-03T20:12:53;19.90;99.90
19279;DHT22;9773;47.062;15.446;2022-09-03T20:15:22;19.80;99.90
19279;DHT22;9773;47.062;15.446;2022-09-03T20:17:57;19.80;99.90
19279;DHT22;9773;47.062;15.446;2022-09-03T20:25:58;19.60;99.90
19279;DHT22;9773;47.062;15.446;2022-09-03T20:28:35;19.60;99.90
19279;DHT22;9773;47.062;15.446;2022-09-03T20:31:27;19.60;99.90
19279;DHT22;9773;47.062;15.446;2022-09-03T20:42:39;19.50;99.90
19279;DHT22;9773;47.062;15.446;2022-09-03T20:45:15;19.40;99.90
19279;DHT22;9773;47.062;15.446;2022-09-03T20:50:46;19.40;99.90
19279;DHT22;9773;47.062;15.446;2022-09-03T20:55:47;19.30;99.90
19279;DHT22;9773;47.062;15.446;2022-09-03T20:58:31;19.30;99.90
19279;DHT22;9773;47.062;15.446;2022-09-03T21:09:13;19.10;99.90
19279;DHT22;9773;47.062;15.446;2022-09-03T21:14:37;19.10;99.90
19279;DHT22;9773;47.062;15.446;2022-09-03T21:25:05;19.10;99.90
19279;DHT22;9773;47.062;15.446;2022-09-03T21:27:50;19.10;99.90
19279;DHT22;9773;47.062;15.446;2022-09-03T21:30:18;19.00;99.90
19279;DHT22;9773;47.062;15.446;2022-09-03T21:33:22;19.00;99.90
19279;DHT22;9773;47.062;15.446;2022-09-03T21:35:57;19.00;99.90
19279;DHT22;9773;47.062;15.446;2022-09-03T21:38:26;19.10;99.90
19279;DHT22;9773;47.062;15.446;2022-09-03T21:41:18;19.00;99.90
19279;DHT22;9773;47.062;15.446;2022-09-03T21:46:53;19.00;99.90
19279;DHT22;9773;47.062;15.446;2022-09-03T21:49:30;19.00;99.90
19279;DHT22;9773;47.062;15.446;2022-09-03T21:52:19;18.90;99.90
19279;DHT22;9773;47.062;15.446;2022-09-03T21:54:46;19.00;99.90
19279;DHT22;9773;47.062;15.446;2022-09-03T22:00:10;19.00;99.90
19279;DHT22;9773;47.062;15.446;2022-09-03T22:02:36;19.10;99.90
19279;DHT22;9773;47.062;15.446;2022-09-03T22:05:03;19.10;99.90
19279;DHT22;9773;47.062;15.446;2022-09-03T22:10:26;19.00;99.90
19279;DHT22;9773;47.062;15.446;2022-09-03T22:13:16;19.10;99.90
19279;DHT22;9773;47.062;15.446;2022-09-03T22:15:48;19.20;99.90
19279;DHT22;9773;47.062;15.446;2022-09-03T22:18:25;19.10;99.90
19279;DHT22;9773;47.062;15.446;2022-09-03T22:23:47;19.20;99.90
19279;DHT22;9773;47.062;15.446;2022-09-03T22:26:54;19.20;99.90
19279;DHT22;9773;47.062;15.446;2022-09-03T22:29:28;19.20;99.90